CheckWX is a tool to help pilots better visualize weather data.  It is not intended as a substitute for an official pre-flight weather briefing.

13:45:01 UTC

KCNY TAF
Canyonlands Field Airport
Moab, Utah, USA
KCNY 131139Z 1312/1412 27008KT P6SM FEW050 SCT080 FM131500 27005KT P6SM SCT050 BKN080 FM140300 28005KT P6SM VCSH SCT070 OVC080

Dec-13@
12:00 UTC

Dec-13 @ 12:00 UTC

Dec-13@
15:00 UTC

Dec-13 @ 15:00 UTC

KCNY 131139Z 1312/1412 27008KT P6SM FEW050 SCT080
Wind
  • 270° at 8 KTS
Cloud Levels
  • Few at 5,000' AGL
  • Scattered at 8,000' AGL

Dec-13@
15:00 UTC

Dec-13 @ 15:00 UTC

Dec-14@
03:00 UTC

Dec-14 @ 03:00 UTC

FM131500 27005KT P6SM SCT050 BKN080

From

From Standard forecast or significant change

Wind
  • 270° at 5 KTS
Cloud Levels
  • Scattered at 5,000' AGL
  • Broken at 8,000' AGL

Dec-14@
03:00 UTC

Dec-14 @ 03:00 UTC

Dec-14@
12:00 UTC

Dec-14 @ 12:00 UTC

FM140300 28005KT P6SM VCSH SCT070 OVC080

From

From Standard forecast or significant change

Wind
  • 280° at 5 KTS
Cloud Levels
  • Scattered at 7,000' AGL
  • Overcast at 8,000' AGL